createdAt,value
2022-09-06T00:05:12.794Z,11
2022-09-06T00:17:12.797Z,542
2022-09-06T00:28:12.774Z,353
2022-09-06T00:30:12.787Z,2
2022-09-06T00:39:12.788Z,565
2022-09-06T00:40:12.779Z,7
2022-09-06T00:41:12.790Z,381
2022-09-06T00:43:12.776Z,127
2022-09-06T00:45:12.772Z,682
2022-09-06T00:47:12.784Z,189
2022-09-06T00:48:12.777Z,779
2022-09-06T00:49:12.771Z,237
2022-09-06T00:52:12.783Z,843
2022-09-06T00:53:12.782Z,251
2022-09-06T00:54:12.773Z,839
2022-09-06T00:56:12.772Z,495
2022-09-06T00:57:12.779Z,845
2022-09-06T00:58:12.807Z,823
2022-09-06T00:59:12.784Z,672
2022-09-06T01:00:12.786Z,426
2022-09-06T01:01:12.893Z,251
2022-09-06T01:02:12.951Z,843
2022-09-06T01:03:12.781Z,819
2022-09-06T01:04:12.774Z,537
2022-09-06T01:05:12.792Z,66
2022-09-06T01:06:12.786Z,798
2022-09-06T01:07:12.779Z,419
2022-09-06T01:08:12.779Z,287
2022-09-06T01:09:12.786Z,56
2022-09-06T01:10:12.786Z,0
2022-09-06T01:11:12.776Z,274
2022-09-06T01:12:12.780Z,262
2022-09-06T01:13:12.787Z,82
2022-09-06T01:14:12.786Z,0
2022-09-06T01:15:12.838Z,0
2022-09-06T01:16:12.869Z,0
2022-09-06T01:17:12.790Z,637
2022-09-06T01:18:12.803Z,428
2022-09-06T01:19:12.797Z,53
2022-09-06T01:20:12.784Z,785
2022-09-06T01:21:12.780Z,769
2022-09-06T01:22:12.783Z,811
2022-09-06T01:23:12.799Z,0
2022-09-06T01:24:12.853Z,0
2022-09-06T01:25:12.796Z,0
2022-09-06T01:26:12.791Z,0
2022-09-06T01:27:12.793Z,46
2022-09-06T01:28:12.793Z,0
2022-09-06T01:29:12.791Z,279
2022-09-06T01:30:12.810Z,294
2022-09-06T01:31:12.818Z,77
2022-09-06T01:32:12.800Z,202
2022-09-06T01:33:12.787Z,188
2022-09-06T01:34:12.794Z,180
2022-09-06T01:35:12.791Z,159
2022-09-06T01:36:12.792Z,163
2022-09-06T01:37:12.813Z,117
2022-09-06T01:38:12.791Z,233
2022-09-06T01:39:12.792Z,360
2022-09-06T01:40:12.785Z,507
2022-09-06T01:41:12.794Z,523
2022-09-06T01:42:12.805Z,550
2022-09-06T01:43:12.794Z,601
2022-09-06T01:44:12.791Z,592
2022-09-06T01:45:12.791Z,494
2022-09-06T01:46:12.831Z,390
2022-09-06T01:47:12.805Z,269
2022-09-06T01:48:12.795Z,268
2022-09-06T01:49:12.827Z,301
2022-09-06T01:50:12.789Z,271
2022-09-06T01:51:12.791Z,283
2022-09-06T01:52:12.791Z,282
2022-09-06T01:53:12.795Z,279
2022-09-06T01:54:12.791Z,255
2022-09-06T01:55:12.795Z,265
2022-09-06T01:56:12.798Z,250
2022-09-06T01:57:12.797Z,249
2022-09-06T01:58:12.793Z,227
2022-09-06T01:59:12.816Z,208
2022-09-06T02:00:12.800Z,227
2022-09-06T02:01:12.893Z,195
2022-09-06T02:02:12.831Z,169
2022-09-06T02:03:13.110Z,178
2022-09-06T02:04:12.797Z,176
2022-09-06T02:05:12.793Z,167
2022-09-06T02:06:12.797Z,153
2022-09-06T02:07:12.802Z,180
2022-09-06T02:08:12.814Z,165
2022-09-06T02:09:12.802Z,0
2022-09-06T02:10:12.808Z,0
2022-09-06T02:11:12.845Z,65
2022-09-06T02:12:12.805Z,3
2022-09-06T02:13:12.802Z,0
2022-09-06T02:14:12.803Z,3
2022-09-06T02:15:12.807Z,5
2022-09-06T02:16:12.802Z,3
2022-09-06T02:17:12.805Z,100
2022-09-06T02:18:12.801Z,0
2022-09-06T02:19:12.807Z,9
2022-09-06T02:20:12.835Z,3
2022-09-06T02:21:12.809Z,108
2022-09-06T02:22:12.802Z,105
2022-09-06T02:23:12.810Z,69
2022-09-06T02:24:12.814Z,100
2022-09-06T02:25:12.810Z,68
2022-09-06T02:26:12.811Z,4
2022-09-06T02:27:12.809Z,25
2022-09-06T02:28:12.811Z,36
2022-09-06T02:29:12.853Z,4
2022-09-06T02:30:12.806Z,85
2022-09-06T02:31:12.838Z,4
2022-09-06T02:32:12.807Z,229
2022-09-06T02:33:12.831Z,0
2022-09-06T02:34:12.803Z,271
2022-09-06T02:35:12.814Z,0
2022-09-06T02:36:12.818Z,0
2022-09-06T02:37:12.829Z,57
2022-09-06T02:38:12.814Z,5
2022-09-06T02:39:12.804Z,13
2022-09-06T02:40:12.895Z,271
2022-09-06T02:41:12.807Z,272
2022-09-06T02:42:12.818Z,264
2022-09-06T02:43:12.815Z,244
2022-09-06T02:44:12.814Z,257
2022-09-06T02:45:12.873Z,335
2022-09-06T02:46:12.887Z,367
2022-09-06T02:47:12.810Z,357
2022-09-06T02:48:12.815Z,329
2022-09-06T02:49:12.811Z,444
2022-09-06T02:50:12.812Z,478
2022-09-06T02:51:12.816Z,431
2022-09-06T02:52:12.813Z,84
2022-09-06T02:53:12.808Z,424
2022-09-06T02:54:12.815Z,409
2022-09-06T02:56:12.813Z,0
2022-09-06T02:57:12.890Z,146
2022-09-06T02:58:12.815Z,292
2022-09-06T02:59:12.818Z,125
2022-09-06T03:00:12.814Z,383
2022-09-06T03:01:12.862Z,63
2022-09-06T03:02:12.891Z,43
2022-09-06T03:03:12.811Z,127
2022-09-06T03:04:12.818Z,100
2022-09-06T03:05:12.822Z,90
2022-09-06T03:07:12.815Z,29
2022-09-06T03:08:12.818Z,108
2022-09-06T03:09:12.828Z,182
2022-09-06T03:10:12.856Z,146
2022-09-06T03:11:12.817Z,186
2022-09-06T03:12:12.820Z,172
2022-09-06T03:13:12.814Z,42
2022-09-06T03:14:12.824Z,0
2022-09-06T03:15:12.833Z,0
2022-09-06T03:16:12.886Z,97
2022-09-06T03:17:12.825Z,0
2022-09-06T03:18:12.818Z,2
2022-09-06T03:19:12.820Z,0
2022-09-06T03:20:12.831Z,0
2022-09-06T03:21:12.818Z,0
2022-09-06T03:22:12.834Z,0
2022-09-06T03:23:12.850Z,0
2022-09-06T03:24:12.824Z,0
2022-09-06T03:25:12.824Z,0
2022-09-06T03:26:12.882Z,0
2022-09-06T03:27:12.828Z,1
2022-09-06T03:28:12.824Z,0
2022-09-06T03:29:12.839Z,0
2022-09-06T03:30:12.833Z,0
2022-09-06T03:31:12.911Z,0
2022-09-06T03:32:12.825Z,9
2022-09-06T03:33:12.830Z,14
2022-09-06T03:34:12.828Z,0
2022-09-06T03:35:12.827Z,1
2022-09-06T03:36:12.825Z,0
2022-09-06T03:37:12.829Z,1
2022-09-06T03:38:12.823Z,1
2022-09-06T03:39:12.829Z,0
2022-09-06T03:40:12.833Z,61
2022-09-06T03:41:12.837Z,65
2022-09-06T03:42:12.833Z,2
2022-09-06T03:43:12.876Z,3
2022-09-06T03:44:12.833Z,0
2022-09-06T03:45:12.841Z,0
2022-09-06T03:46:12.973Z,0
2022-09-06T03:47:13.551Z,0
2022-09-06T03:48:12.839Z,0
2022-09-06T03:49:12.835Z,0
2022-09-06T03:50:12.836Z,1
2022-09-06T03:51:12.832Z,0
2022-09-06T03:52:12.831Z,0
2022-09-06T03:53:12.834Z,0
2022-09-06T03:54:12.832Z,33
2022-09-06T03:55:12.837Z,7
2022-09-06T03:56:12.836Z,1
2022-09-06T03:57:12.837Z,1
2022-09-06T03:58:12.837Z,2
2022-09-06T03:59:12.845Z,0
2022-09-06T04:00:12.836Z,16
2022-09-06T04:01:12.945Z,13
2022-09-06T04:02:12.915Z,12
2022-09-06T04:03:12.838Z,1
2022-09-06T04:04:12.838Z,3
2022-09-06T04:05:12.915Z,3
2022-09-06T04:06:12.845Z,3
2022-09-06T04:07:12.845Z,8
2022-09-06T04:08:12.838Z,0
2022-09-06T04:09:12.842Z,0
2022-09-06T04:10:12.869Z,0
2022-09-06T04:11:12.848Z,0
2022-09-06T04:12:12.854Z,0
2022-09-06T04:13:12.843Z,0
2022-09-06T04:14:12.844Z,0
2022-09-06T04:15:12.842Z,0
2022-09-06T04:16:12.931Z,0
2022-09-06T04:17:12.841Z,3
2022-09-06T04:18:12.844Z,0
2022-09-06T04:19:12.845Z,0
2022-09-06T04:20:12.867Z,0
2022-09-06T04:21:12.840Z,0
2022-09-06T04:22:12.896Z,0
2022-09-06T04:23:12.840Z,0
2022-09-06T04:24:12.852Z,0
2022-09-06T04:25:12.851Z,0
2022-09-06T04:26:12.850Z,0
2022-09-06T04:27:12.850Z,0
2022-09-06T04:28:12.852Z,0
2022-09-06T04:29:12.852Z,0
2022-09-06T04:30:12.853Z,0
2022-09-06T04:31:12.841Z,0
2022-09-06T04:32:12.935Z,0
2022-09-06T04:33:12.843Z,0
2022-09-06T04:34:12.845Z,0
2022-09-06T04:35:12.849Z,0
2022-09-06T04:36:12.853Z,0
2022-09-06T04:37:12.852Z,2
2022-09-06T04:38:12.849Z,0
2022-09-06T04:39:12.844Z,0
2022-09-06T04:40:12.847Z,0
2022-09-06T04:41:12.864Z,0
2022-09-06T04:42:12.857Z,0
2022-09-06T04:43:12.849Z,0
2022-09-06T04:44:12.856Z,0
2022-09-06T04:45:12.855Z,0
2022-09-06T04:46:12.882Z,1
2022-09-06T04:47:12.853Z,0
2022-09-06T04:48:12.848Z,0
2022-09-06T04:49:12.856Z,0
2022-09-06T04:50:12.850Z,1
2022-09-06T04:51:12.859Z,0
2022-09-06T04:52:12.849Z,0
2022-09-06T04:53:12.879Z,0
2022-09-06T04:54:12.862Z,0
2022-09-06T04:55:12.855Z,2
2022-09-06T04:56:12.856Z,0
2022-09-06T04:57:12.847Z,0
2022-09-06T04:58:12.850Z,1
2022-09-06T04:59:12.854Z,1
2022-09-06T05:00:12.858Z,0
2022-09-06T05:01:12.933Z,1
2022-09-06T05:02:12.946Z,2
2022-09-06T05:03:12.855Z,1
2022-09-06T05:04:12.857Z,0
2022-09-06T05:05:12.904Z,0
2022-09-06T05:06:12.860Z,0
2022-09-06T05:07:12.898Z,0
2022-09-06T05:08:12.855Z,0
2022-09-06T05:09:12.850Z,0
2022-09-06T05:10:12.853Z,4
2022-09-06T05:11:12.853Z,0
2022-09-06T05:12:12.861Z,1
2022-09-06T05:13:12.856Z,0
2022-09-06T05:14:12.860Z,0
2022-09-06T05:15:12.862Z,0
2022-09-06T05:16:12.921Z,0
2022-09-06T05:17:12.855Z,1
2022-09-06T05:18:16.050Z,3
2022-09-06T05:19:12.869Z,1
2022-09-06T05:20:12.860Z,0
2022-09-06T05:21:12.855Z,3
2022-09-06T05:22:12.864Z,0
2022-09-06T05:23:12.858Z,0
2022-09-06T05:24:12.864Z,1
2022-09-06T05:25:12.881Z,0
2022-09-06T05:26:12.866Z,0
2022-09-06T05:27:12.869Z,1
2022-09-06T05:28:12.879Z,0
2022-09-06T05:29:12.868Z,1
2022-09-06T05:30:12.866Z,0
2022-09-06T05:31:12.975Z,0
2022-09-06T05:32:12.949Z,1
2022-09-06T05:33:12.867Z,0
2022-09-06T05:34:12.870Z,6
2022-09-06T05:35:12.884Z,1
2022-09-06T05:36:12.868Z,1
2022-09-06T05:37:12.867Z,0
2022-09-06T05:38:12.865Z,0
2022-09-06T05:39:12.868Z,0
2022-09-06T05:40:12.931Z,0
2022-09-06T05:41:12.877Z,0
2022-09-06T05:42:17.156Z,0
2022-09-06T05:43:12.872Z,8
2022-09-06T05:44:12.873Z,7
2022-09-06T05:45:12.878Z,9
2022-09-06T05:46:12.948Z,0
2022-09-06T05:47:12.874Z,0
2022-09-06T05:48:12.869Z,0
2022-09-06T05:49:12.938Z,0
2022-09-06T05:50:12.869Z,0
2022-09-06T05:51:12.866Z,0
2022-09-06T05:52:12.868Z,0
2022-09-06T05:53:12.871Z,0
2022-09-06T05:54:12.937Z,0
2022-09-06T05:55:12.871Z,0
2022-09-06T05:56:12.886Z,0
2022-09-06T05:57:12.876Z,0
2022-09-06T05:58:12.882Z,9
2022-09-06T05:59:12.882Z,0
2022-09-06T06:00:12.872Z,0
2022-09-06T06:01:12.965Z,0
2022-09-06T06:02:13.070Z,0
2022-09-06T06:03:12.877Z,0
2022-09-06T06:04:12.896Z,0
2022-09-06T06:05:12.879Z,0
2022-09-06T06:06:12.879Z,1
2022-09-06T06:07:12.881Z,8
2022-09-06T06:08:12.874Z,0
2022-09-06T06:09:12.878Z,0
2022-09-06T06:10:12.882Z,0
2022-09-06T06:11:12.883Z,0
2022-09-06T06:12:12.883Z,0
2022-09-06T06:13:12.874Z,0
2022-09-06T06:14:12.874Z,4
2022-09-06T06:15:12.889Z,0
2022-09-06T06:16:12.963Z,0
2022-09-06T06:17:12.877Z,0
2022-09-06T06:18:12.900Z,0
2022-09-06T06:19:12.879Z,5
2022-09-06T06:20:12.888Z,0
2022-09-06T06:21:12.883Z,1
2022-09-06T06:22:12.881Z,17
2022-09-06T06:23:12.887Z,0
2022-09-06T06:24:12.883Z,9
2022-09-06T06:25:12.899Z,1
2022-09-06T06:26:12.883Z,2
2022-09-06T06:27:12.879Z,1
2022-09-06T06:28:12.882Z,2
2022-09-06T06:29:12.885Z,7
2022-09-06T06:30:17.769Z,1
2022-09-06T06:31:12.943Z,6
2022-09-06T06:32:12.883Z,2
2022-09-06T06:33:12.890Z,6
2022-09-06T06:34:12.892Z,9
2022-09-06T06:35:12.885Z,6
2022-09-06T06:36:12.882Z,6
2022-09-06T06:37:12.894Z,7
2022-09-06T06:38:12.891Z,7
2022-09-06T06:39:12.889Z,9
2022-09-06T06:40:13.014Z,8
2022-09-06T06:41:12.888Z,11
2022-09-06T06:42:12.885Z,9
2022-09-06T06:43:12.893Z,10
2022-09-06T06:44:12.896Z,12
2022-09-06T06:45:12.890Z,11
2022-09-06T06:46:12.976Z,10
2022-09-06T06:47:12.892Z,7
2022-09-06T06:48:12.898Z,6
2022-09-06T06:49:12.893Z,8
2022-09-06T06:50:12.898Z,9
2022-09-06T06:51:12.887Z,10
2022-09-06T06:52:12.899Z,11
2022-09-06T06:53:12.900Z,12
2022-09-06T06:54:12.900Z,11
2022-09-06T06:55:12.893Z,12
2022-09-06T06:56:12.893Z,13
2022-09-06T06:57:12.927Z,15
2022-09-06T06:58:12.894Z,14
2022-09-06T06:59:12.898Z,14
2022-09-06T07:00:12.891Z,0
2022-09-06T07:01:13.079Z,15
2022-09-06T07:02:13.050Z,14
2022-09-06T07:03:12.890Z,15
2022-09-06T07:04:12.891Z,13
2022-09-06T07:06:13.271Z,8
2022-09-06T07:08:12.894Z,5
2022-09-06T07:09:12.887Z,5
2022-09-06T07:10:42.291Z,5
2022-09-06T07:11:12.896Z,4
2022-09-06T07:12:12.898Z,3
2022-09-06T07:13:12.903Z,3
2022-09-06T07:14:12.906Z,2
2022-09-06T07:15:12.913Z,4
2022-09-06T07:16:13.026Z,4
2022-09-06T07:17:12.902Z,5
2022-09-06T07:18:12.899Z,4
2022-09-06T07:20:13.559Z,4
2022-09-06T07:22:13.775Z,3
2022-09-06T07:24:12.910Z,6
2022-09-06T07:25:14.392Z,5
2022-09-06T07:26:12.912Z,10
2022-09-06T07:28:12.904Z,10
2022-09-06T07:29:12.910Z,11
2022-09-06T07:30:12.912Z,9
2022-09-06T07:32:13.094Z,15
2022-09-06T07:33:12.944Z,32
2022-09-06T07:34:12.906Z,60
2022-09-06T07:35:12.922Z,114
2022-09-06T07:36:12.917Z,124
2022-09-06T07:37:12.908Z,135
2022-09-06T07:38:12.903Z,128
2022-09-06T07:39:12.911Z,185
2022-09-06T07:40:12.992Z,196
2022-09-06T07:41:12.917Z,139
2022-09-06T07:42:12.909Z,212
2022-09-06T07:43:12.913Z,113
2022-09-06T07:44:12.908Z,177
2022-09-06T07:45:12.909Z,451
2022-09-06T07:46:12.921Z,409
2022-09-06T07:48:12.924Z,345
2022-09-06T07:49:12.931Z,478
2022-09-06T07:51:12.915Z,197
2022-09-06T07:53:16.739Z,127
2022-09-06T07:54:29.872Z,127
2022-09-06T07:55:12.912Z,288
2022-09-06T07:56:12.920Z,309
2022-09-06T07:57:12.921Z,226
2022-09-06T07:58:12.913Z,185
2022-09-06T07:59:12.916Z,136
2022-09-06T08:00:12.918Z,178
2022-09-06T08:01:13.014Z,213
2022-09-06T08:02:12.968Z,152
2022-09-06T08:03:12.919Z,159
2022-09-06T08:04:12.935Z,169
2022-09-06T08:06:12.928Z,174
2022-09-06T08:09:12.923Z,166
2022-09-06T08:10:14.830Z,162
2022-09-06T08:11:12.966Z,149
2022-09-06T08:12:12.926Z,164
2022-09-06T08:13:12.925Z,127
2022-09-06T08:14:12.921Z,97
2022-09-06T08:15:12.932Z,124
2022-09-06T08:16:12.992Z,94
2022-09-06T08:17:12.921Z,76
2022-09-06T08:18:12.963Z,140
2022-09-06T08:19:12.950Z,108
2022-09-06T08:20:12.926Z,289
2022-09-06T08:21:13.209Z,299
2022-09-06T08:22:12.926Z,378
2022-09-06T08:23:12.931Z,423
2022-09-06T08:24:12.963Z,498
2022-09-06T08:25:12.934Z,280
2022-09-06T08:26:12.936Z,195
2022-09-06T08:27:12.938Z,169
2022-09-06T08:29:12.938Z,250
2022-09-06T08:30:12.951Z,364
2022-09-06T08:31:13.018Z,380
2022-09-06T08:32:12.981Z,427
2022-09-06T08:33:12.945Z,254
2022-09-06T08:34:13.041Z,212
2022-09-06T08:35:12.931Z,134
2022-09-06T08:36:12.935Z,131
2022-09-06T08:37:12.935Z,146
2022-09-06T08:38:12.933Z,135
2022-09-06T08:39:12.943Z,48
2022-09-06T08:40:13.036Z,4
2022-09-06T08:41:13.475Z,1
2022-09-06T08:42:12.943Z,1
2022-09-06T08:43:12.933Z,1
2022-09-06T08:45:12.933Z,0
2022-09-06T08:46:12.978Z,5
2022-09-06T08:47:12.943Z,1
2022-09-06T08:48:12.985Z,0
2022-09-06T08:49:12.954Z,1
2022-09-06T08:50:12.941Z,1
2022-09-06T08:51:12.939Z,0
2022-09-06T08:52:12.938Z,0
2022-09-06T08:53:17.102Z,1
2022-09-06T08:54:12.946Z,1
2022-09-06T08:55:12.944Z,1
2022-09-06T08:56:12.943Z,1
2022-09-06T08:57:12.947Z,1
2022-09-06T08:58:12.951Z,1
2022-09-06T08:59:12.946Z,0
2022-09-06T09:00:12.953Z,0
2022-09-06T09:01:13.024Z,0
2022-09-06T09:02:12.999Z,0
2022-09-06T09:03:16.653Z,0
2022-09-06T09:04:13.011Z,0
2022-09-06T09:05:12.950Z,1
2022-09-06T09:06:13.004Z,1
2022-09-06T09:07:12.952Z,0
2022-09-06T09:08:12.949Z,0
2022-09-06T09:09:12.953Z,0
2022-09-06T09:10:12.951Z,0
2022-09-06T09:11:12.955Z,0
2022-09-06T09:12:12.948Z,1
2022-09-06T09:13:12.956Z,0
2022-09-06T09:14:12.949Z,0
2022-09-06T09:15:13.002Z,0
2022-09-06T09:16:13.054Z,0
2022-09-06T09:17:12.955Z,0
2022-09-06T09:18:12.955Z,0
2022-09-06T09:19:12.970Z,1
2022-09-06T09:20:12.966Z,0
2022-09-06T09:21:12.956Z,0
2022-09-06T09:22:12.964Z,0
2022-09-06T09:23:12.961Z,0
2022-09-06T09:24:12.969Z,1
2022-09-06T09:25:12.959Z,0
2022-09-06T09:26:12.952Z,0
2022-09-06T09:27:12.961Z,1
2022-09-06T09:28:12.960Z,0
2022-09-06T09:29:12.955Z,1
2022-09-06T09:31:13.049Z,0
2022-09-06T09:32:12.973Z,0
2022-09-06T09:33:12.969Z,0
2022-09-06T09:34:12.958Z,0
2022-09-06T09:35:12.953Z,0
2022-09-06T09:36:12.965Z,1
2022-09-06T09:38:13.020Z,0
2022-09-06T09:39:12.960Z,0
2022-09-06T09:40:13.108Z,0
2022-09-06T09:41:12.964Z,0
2022-09-06T09:42:12.960Z,0
2022-09-06T09:43:12.963Z,0
2022-09-06T09:44:12.971Z,0
2022-09-06T09:45:12.958Z,0
2022-09-06T09:46:12.997Z,0
2022-09-06T09:47:13.009Z,0
2022-09-06T09:48:12.971Z,0
2022-09-06T09:49:12.965Z,0
2022-09-06T09:50:12.973Z,0
2022-09-06T09:52:12.965Z,0
2022-09-06T09:53:12.968Z,1
2022-09-06T09:54:12.980Z,0
2022-09-06T09:55:12.978Z,0
2022-09-06T09:56:12.979Z,0
2022-09-06T09:57:12.970Z,0
2022-09-06T09:58:12.968Z,0
2022-09-06T09:59:12.977Z,0
2022-09-06T10:00:12.984Z,1
2022-09-06T10:01:13.045Z,0
2022-09-06T10:02:12.984Z,1
2022-09-06T10:03:13.037Z,0
2022-09-06T10:05:12.970Z,0
2022-09-06T10:07:12.971Z,0
2022-09-06T10:08:13.013Z,0
2022-09-06T10:09:16.021Z,0
2022-09-06T10:10:13.071Z,0
2022-09-06T10:11:12.995Z,0
2022-09-06T10:12:12.982Z,0
2022-09-06T10:13:12.983Z,0
2022-09-06T10:14:12.989Z,1
2022-09-06T10:15:12.984Z,0
2022-09-06T10:16:13.027Z,0
2022-09-06T10:17:12.975Z,1
2022-09-06T10:18:12.976Z,0
2022-09-06T10:19:13.771Z,0
2022-09-06T10:20:13.127Z,0
2022-09-06T10:21:12.977Z,0
2022-09-06T10:22:12.979Z,0
2022-09-06T10:23:13.029Z,0
2022-09-06T10:24:28.450Z,1
2022-09-06T10:25:12.989Z,0
2022-09-06T10:26:12.986Z,0
2022-09-06T10:27:12.986Z,0
2022-09-06T10:29:12.983Z,0
2022-09-06T10:30:12.985Z,0
2022-09-06T10:31:13.075Z,1
2022-09-06T10:32:12.990Z,0
2022-09-06T10:33:12.988Z,0
2022-09-06T10:34:12.988Z,0
2022-09-06T10:35:12.990Z,1
2022-09-06T10:36:12.989Z,0
2022-09-06T10:37:12.987Z,0
2022-09-06T10:38:13.013Z,0
2022-09-06T10:39:12.989Z,0
2022-09-06T10:40:13.213Z,0
2022-09-06T10:41:12.995Z,0
2022-09-06T10:42:13.008Z,0
2022-09-06T10:43:13.002Z,0
2022-09-06T10:44:12.995Z,0
2022-09-06T10:45:13.381Z,0
2022-09-06T10:46:13.031Z,1
2022-09-06T10:47:13.003Z,0
2022-09-06T10:48:14.923Z,0
2022-09-06T10:49:12.996Z,0
2022-09-06T10:50:13.004Z,0
2022-09-06T10:51:13.003Z,0
2022-09-06T10:52:13.004Z,1
2022-09-06T10:53:12.996Z,0
2022-09-06T10:54:13.001Z,0
2022-09-06T10:55:13.022Z,1
2022-09-06T10:56:13.007Z,0
2022-09-06T10:58:16.116Z,0
2022-09-06T11:00:13.006Z,0
2022-09-06T11:01:13.068Z,0
2022-09-06T11:02:13.156Z,0
2022-09-06T11:04:13.383Z,0
2022-09-06T11:06:13.076Z,0
2022-09-06T11:07:13.007Z,0
2022-09-06T11:09:13.012Z,0
2022-09-06T11:10:13.008Z,0
2022-09-06T11:11:13.009Z,1
2022-09-06T11:12:13.009Z,0
2022-09-06T11:13:13.057Z,0
2022-09-06T11:14:13.012Z,0
2022-09-06T11:15:13.011Z,0
2022-09-06T11:16:13.106Z,0
2022-09-06T11:17:13.008Z,0
2022-09-06T11:18:13.025Z,1
2022-09-06T11:19:13.008Z,0
2022-09-06T11:20:13.013Z,0
2022-09-06T11:21:17.471Z,0
2022-09-06T11:22:13.029Z,0
2022-09-06T11:23:13.020Z,1
2022-09-06T11:24:13.017Z,0
2022-09-06T11:25:13.014Z,0
2022-09-06T11:26:13.026Z,0
2022-09-06T11:27:13.019Z,0
2022-09-06T11:28:13.019Z,0
2022-09-06T11:29:13.021Z,0
2022-09-06T11:30:13.063Z,0
2022-09-06T11:32:16.239Z,0
2022-09-06T11:33:13.012Z,0
2022-09-06T11:34:13.018Z,0
2022-09-06T11:35:13.022Z,0
2022-09-06T11:36:13.024Z,1
2022-09-06T11:37:13.026Z,1
2022-09-06T11:38:13.026Z,0
2022-09-06T11:39:13.036Z,0
2022-09-06T11:40:28.955Z,1
2022-09-06T11:41:13.024Z,0
2022-09-06T11:42:13.030Z,1
2022-09-06T11:43:13.025Z,0
2022-09-06T11:44:13.065Z,0
2022-09-06T11:45:13.030Z,0
2022-09-06T11:46:15.444Z,0
2022-09-06T11:47:13.031Z,0
2022-09-06T11:48:13.026Z,1
2022-09-06T11:49:13.037Z,0
2022-09-06T11:50:13.029Z,0
2022-09-06T11:51:13.025Z,0
2022-09-06T11:52:13.028Z,0
2022-09-06T11:53:13.100Z,0
2022-09-06T11:54:13.033Z,0
2022-09-06T11:55:13.054Z,0
2022-09-06T11:56:13.042Z,0
2022-09-06T11:57:13.030Z,0
2022-09-06T11:58:13.035Z,0
2022-09-06T11:59:13.035Z,0
2022-09-06T12:00:13.026Z,0
2022-09-06T12:01:13.036Z,0
2022-09-06T12:02:13.043Z,0
2022-09-06T12:04:13.038Z,0
2022-09-06T12:05:13.032Z,0
2022-09-06T12:06:13.028Z,0
2022-09-06T12:07:13.041Z,0
2022-09-06T12:08:13.044Z,0
2022-09-06T12:09:13.041Z,0
2022-09-06T12:10:13.041Z,0
2022-09-06T12:11:13.033Z,0
2022-09-06T12:12:16.942Z,1
2022-09-06T12:13:13.038Z,0
2022-09-06T12:14:13.037Z,0
2022-09-06T12:15:13.040Z,0
2022-09-06T12:16:13.142Z,0
2022-09-06T12:17:13.057Z,0
2022-09-06T12:18:13.038Z,0
2022-09-06T12:19:13.046Z,0
2022-09-06T12:20:13.046Z,0
2022-09-06T12:21:13.050Z,1
2022-09-06T12:22:13.048Z,0
2022-09-06T12:23:13.049Z,0
2022-09-06T12:24:13.051Z,0
2022-09-06T12:25:13.051Z,1
2022-09-06T12:26:13.113Z,0
2022-09-06T12:27:13.064Z,0
2022-09-06T12:29:13.047Z,0
2022-09-06T12:30:13.047Z,0
2022-09-06T12:31:18.142Z,1
2022-09-06T12:32:13.044Z,0
2022-09-06T12:33:13.068Z,0
2022-09-06T12:34:13.062Z,0
2022-09-06T12:36:13.055Z,0
2022-09-06T12:37:13.049Z,0
2022-09-06T12:38:13.050Z,0
2022-09-06T12:39:13.048Z,1
2022-09-06T12:40:13.177Z,0
2022-09-06T12:41:13.059Z,0
2022-09-06T12:42:13.062Z,0
2022-09-06T12:43:13.056Z,0
2022-09-06T12:44:13.054Z,0
2022-09-06T12:45:13.059Z,1
2022-09-06T12:46:13.119Z,0
2022-09-06T12:47:13.062Z,1
2022-09-06T12:48:13.054Z,0
2022-09-06T12:49:13.063Z,1
2022-09-06T12:51:13.067Z,0
2022-09-06T12:52:13.083Z,1
2022-09-06T12:53:15.820Z,1
2022-09-06T12:54:13.086Z,0
2022-09-06T12:55:13.068Z,1
2022-09-06T12:56:13.068Z,0
2022-09-06T12:57:13.061Z,1
2022-09-06T12:58:13.059Z,1
2022-09-06T12:59:13.124Z,1
2022-09-06T13:00:13.068Z,0
2022-09-06T13:01:13.177Z,0
2022-09-06T13:02:13.178Z,0
2022-09-06T13:03:13.065Z,0
2022-09-06T13:04:13.070Z,0
2022-09-06T13:05:13.058Z,0
2022-09-06T13:06:13.061Z,1
2022-09-06T13:07:13.063Z,1
2022-09-06T13:08:13.076Z,0
2022-09-06T13:09:13.066Z,0
2022-09-06T13:10:13.080Z,0
2022-09-06T13:12:13.069Z,0
2022-09-06T13:13:13.066Z,1
2022-09-06T13:14:14.414Z,0
2022-09-06T13:15:13.070Z,0
2022-09-06T13:16:13.213Z,1
2022-09-06T13:17:13.071Z,0
2022-09-06T13:18:13.096Z,0
2022-09-06T13:19:13.073Z,0
2022-09-06T13:20:13.067Z,0
2022-09-06T13:21:13.076Z,0
2022-09-06T13:22:13.079Z,1
2022-09-06T13:23:13.069Z,0
2022-09-06T13:24:13.069Z,1
2022-09-06T13:25:13.065Z,0
2022-09-06T13:26:13.076Z,0
2022-09-06T13:27:13.072Z,0
2022-09-06T13:28:13.105Z,0
2022-09-06T13:29:13.079Z,0
2022-09-06T13:30:13.083Z,1
2022-09-06T13:31:13.132Z,1
2022-09-06T13:33:13.078Z,0
2022-09-06T13:34:13.083Z,0
2022-09-06T13:35:13.078Z,1
2022-09-06T13:36:13.098Z,1
2022-09-06T13:37:13.080Z,1
2022-09-06T13:38:13.083Z,0
2022-09-06T13:39:13.094Z,0
2022-09-06T13:40:13.140Z,1
2022-09-06T13:41:16.275Z,1
2022-09-06T13:42:13.084Z,1
2022-09-06T13:43:13.083Z,1
2022-09-06T13:44:13.104Z,1
2022-09-06T13:45:13.082Z,1
2022-09-06T13:46:13.199Z,1
2022-09-06T13:47:13.088Z,1
2022-09-06T13:48:28.806Z,1
2022-09-06T13:49:13.094Z,0
2022-09-06T13:50:13.088Z,1
2022-09-06T13:51:13.097Z,0
2022-09-06T13:52:13.093Z,1
2022-09-06T13:53:13.096Z,1
2022-09-06T13:54:13.098Z,0
2022-09-06T13:55:13.089Z,0
2022-09-06T13:56:13.092Z,0
2022-09-06T13:57:13.090Z,0
2022-09-06T13:58:13.090Z,0
2022-09-06T13:59:13.106Z,0
2022-09-06T14:00:13.122Z,0
2022-09-06T14:01:13.156Z,0
2022-09-06T14:02:13.195Z,1
2022-09-06T14:03:13.096Z,1
2022-09-06T14:04:13.102Z,1
2022-09-06T14:05:13.095Z,1
2022-09-06T14:06:13.096Z,1
2022-09-06T14:07:13.100Z,1
2022-09-06T14:08:13.126Z,1
2022-09-06T14:09:13.474Z,1
2022-09-06T14:10:13.096Z,0
2022-09-06T14:11:13.102Z,1
2022-09-06T14:12:13.101Z,1
2022-09-06T14:13:13.103Z,0
2022-09-06T14:14:13.100Z,1
2022-09-06T14:15:13.104Z,1
2022-09-06T14:16:13.120Z,1
2022-09-06T14:17:13.101Z,1
2022-09-06T14:18:14.543Z,0
2022-09-06T14:19:13.109Z,1
2022-09-06T14:20:13.108Z,0
2022-09-06T14:21:13.120Z,0
2022-09-06T14:22:13.113Z,1
2022-09-06T14:23:13.109Z,0
2022-09-06T14:24:13.106Z,1
2022-09-06T14:25:13.108Z,1
2022-09-06T14:26:13.109Z,0
2022-09-06T14:27:13.108Z,1
2022-09-06T14:29:13.125Z,1
2022-09-06T14:30:13.106Z,0
2022-09-06T14:31:13.167Z,0
2022-09-06T14:32:13.115Z,1
2022-09-06T14:33:13.112Z,1
2022-09-06T14:34:13.113Z,1
2022-09-06T14:35:13.112Z,1
2022-09-06T14:36:13.109Z,0
2022-09-06T14:37:13.783Z,0
2022-09-06T14:38:13.112Z,1
2022-09-06T14:39:13.106Z,1
2022-09-06T14:40:13.176Z,1
2022-09-06T14:41:13.111Z,0
2022-09-06T14:42:13.126Z,1
2022-09-06T14:43:13.111Z,0
2022-09-06T14:44:13.123Z,1
2022-09-06T14:45:13.119Z,1
2022-09-06T14:46:13.249Z,1
2022-09-06T14:47:13.113Z,1
2022-09-06T14:48:13.119Z,0
2022-09-06T14:49:13.134Z,0
2022-09-06T14:50:13.117Z,1
2022-09-06T14:51:13.133Z,0
2022-09-06T14:52:13.127Z,0
2022-09-06T14:53:36.723Z,0
2022-09-06T14:54:13.121Z,1
2022-09-06T14:55:13.123Z,1
2022-09-06T14:56:13.125Z,0
2022-09-06T14:57:13.129Z,0
2022-09-06T14:58:13.119Z,1
2022-09-06T14:59:13.133Z,0
2022-09-06T15:00:13.121Z,1
2022-09-06T15:01:13.300Z,0
2022-09-06T15:02:13.212Z,0
2022-09-06T15:03:13.157Z,1
2022-09-06T15:04:13.139Z,0
2022-09-06T15:05:13.131Z,0
2022-09-06T15:06:13.132Z,0
2022-09-06T15:07:13.132Z,0
2022-09-06T15:08:13.124Z,1
2022-09-06T15:09:13.127Z,0
2022-09-06T15:10:13.138Z,1
2022-09-06T15:11:13.132Z,0
2022-09-06T15:12:13.130Z,1
2022-09-06T15:13:13.139Z,1
2022-09-06T15:14:13.148Z,0
2022-09-06T15:15:13.159Z,1
2022-09-06T15:16:13.211Z,0
2022-09-06T15:17:13.139Z,0
2022-09-06T15:18:13.144Z,0
2022-09-06T15:19:13.132Z,0
2022-09-06T15:20:13.138Z,0
2022-09-06T15:21:13.138Z,1
2022-09-06T15:22:13.136Z,0
2022-09-06T15:23:24.969Z,0
2022-09-06T15:24:13.138Z,1
2022-09-06T15:25:13.154Z,1
2022-09-06T15:26:13.139Z,1
2022-09-06T15:27:13.161Z,0
2022-09-06T15:28:13.144Z,1
2022-09-06T15:29:13.151Z,1
2022-09-06T15:30:13.137Z,1
2022-09-06T15:32:13.141Z,0
2022-09-06T15:33:13.151Z,1
2022-09-06T15:34:13.139Z,1
2022-09-06T15:35:13.145Z,0
2022-09-06T15:36:13.144Z,0
2022-09-06T15:37:13.149Z,0
2022-09-06T15:38:13.141Z,0
2022-09-06T15:39:13.145Z,1
2022-09-06T15:40:13.261Z,0
2022-09-06T15:41:13.151Z,1
2022-09-06T15:42:13.142Z,1
2022-09-06T15:43:13.149Z,0
2022-09-06T15:44:13.169Z,0
2022-09-06T15:45:13.149Z,0
2022-09-06T15:46:13.215Z,0
2022-09-06T15:47:13.165Z,0
2022-09-06T15:48:13.164Z,0
2022-09-06T15:49:13.167Z,1
2022-09-06T15:50:13.152Z,1
2022-09-06T15:51:13.160Z,0